createdAt,value
2018-03-18T00:00:46.534Z,16.10
2018-03-18T00:03:15.734Z,14.90
2018-03-18T00:05:45.065Z,15.30
2018-03-18T00:08:14.109Z,12.53
2018-03-18T00:10:43.247Z,11.27
2018-03-18T00:13:12.470Z,10.87
2018-03-18T00:15:41.863Z,16.37
2018-03-18T00:18:11.336Z,22.60
2018-03-18T00:20:40.473Z,18.40
2018-03-18T00:23:09.755Z,24.47
2018-03-18T00:25:38.993Z,19.93
2018-03-18T00:28:09.331Z,16.27
2018-03-18T00:30:38.435Z,14.63
2018-03-18T00:33:07.686Z,20.33
2018-03-18T00:35:37.029Z,21.40
2018-03-18T00:38:06.129Z,22.00
2018-03-18T00:40:35.025Z,26.03
2018-03-18T00:43:04.458Z,22.20
2018-03-18T00:45:33.609Z,20.60
2018-03-18T00:48:02.650Z,24.63
2018-03-18T00:50:31.869Z,20.73
2018-03-18T00:53:01.237Z,14.67
2018-03-18T00:55:30.293Z,18.53
2018-03-18T00:57:59.201Z,21.83
2018-03-18T01:00:28.121Z,19.37
2018-03-18T01:02:57.317Z,24.50
2018-03-18T01:05:26.485Z,17.80
2018-03-18T01:07:55.695Z,19.07
2018-03-18T01:10:24.795Z,18.70
2018-03-18T01:12:54.277Z,19.07
2018-03-18T01:15:23.539Z,21.63
2018-03-18T01:17:52.629Z,16.83
2018-03-18T01:20:21.969Z,17.93
2018-03-18T01:22:51.211Z,20.60
2018-03-18T01:25:20.201Z,22.03
2018-03-18T01:27:49.511Z,17.17
2018-03-18T01:30:19.034Z,19.37
2018-03-18T01:32:48.446Z,21.80
2018-03-18T01:35:17.505Z,24.03
2018-03-18T01:37:46.797Z,20.53
2018-03-18T01:40:15.869Z,17.53
2018-03-18T01:42:45.103Z,23.17
2018-03-18T01:45:14.341Z,22.70
2018-03-18T01:47:43.557Z,21.43
2018-03-18T01:50:12.824Z,15.10
2018-03-18T01:52:42.228Z,15.47
2018-03-18T01:55:11.497Z,18.03
2018-03-18T01:57:40.621Z,14.13
2018-03-18T02:00:09.827Z,18.13
2018-03-18T02:02:38.963Z,14.63
2018-03-18T02:05:08.187Z,15.93
2018-03-18T02:07:37.360Z,17.43
2018-03-18T02:10:06.588Z,13.67
2018-03-18T02:12:36.009Z,24.37
2018-03-18T02:15:05.433Z,16.63
2018-03-18T02:17:34.613Z,16.17
2018-03-18T02:20:03.845Z,11.10
2018-03-18T02:22:33.205Z,13.57
2018-03-18T02:25:02.598Z,18.93
2018-03-18T02:27:31.837Z,20.57
2018-03-18T02:30:01.102Z,17.40
2018-03-18T02:32:30.520Z,15.33
2018-03-18T02:34:59.581Z,14.07
2018-03-18T02:37:28.930Z,15.30
2018-03-18T02:39:58.187Z,17.53
2018-03-18T02:42:27.137Z,19.53
2018-03-18T02:44:56.615Z,21.60
2018-03-18T02:47:25.585Z,16.23
2018-03-18T02:49:54.665Z,18.90
2018-03-18T02:52:23.922Z,21.60
2018-03-18T02:54:53.022Z,14.60
2018-03-18T02:57:22.070Z,20.03
2018-03-18T02:59:51.085Z,16.27
2018-03-18T03:02:20.312Z,23.13
2018-03-18T03:04:49.292Z,17.13
2018-03-18T03:07:18.450Z,21.97
2018-03-18T03:09:47.398Z,17.27
2018-03-18T03:12:16.374Z,18.53
2018-03-18T03:14:45.451Z,15.40
2018-03-18T03:17:14.525Z,18.33
2018-03-18T03:19:43.747Z,19.90
2018-03-18T03:22:12.938Z,22.10
2018-03-18T03:24:41.922Z,19.30
2018-03-18T03:27:11.112Z,27.27
2018-03-18T03:29:40.365Z,19.17
2018-03-18T03:32:09.510Z,19.83
2018-03-18T03:34:38.765Z,13.23
2018-03-18T03:37:07.738Z,22.63
2018-03-18T03:39:36.999Z,17.90
2018-03-18T03:42:06.229Z,18.20
2018-03-18T03:44:35.187Z,24.33
2018-03-18T03:47:04.283Z,21.27
2018-03-18T03:49:33.256Z,29.90
2018-03-18T03:52:02.556Z,24.87
2018-03-18T03:54:31.946Z,21.77
2018-03-18T03:57:00.989Z,28.30
2018-03-18T03:59:30.229Z,25.63
2018-03-18T04:02:00.201Z,26.67
2018-03-18T04:04:29.287Z,29.13
2018-03-18T04:06:58.532Z,34.03
2018-03-18T04:09:27.730Z,23.13
2018-03-18T04:11:57.210Z,35.63
2018-03-18T04:14:26.373Z,33.07
2018-03-18T04:16:55.576Z,29.67
2018-03-18T04:19:24.650Z,35.37
2018-03-18T04:21:53.730Z,24.40
2018-03-18T04:24:22.773Z,27.83
2018-03-18T04:26:51.825Z,34.70
2018-03-18T04:29:20.749Z,34.10
2018-03-18T04:31:49.824Z,28.13
2018-03-18T04:34:19.057Z,35.40
2018-03-18T04:36:48.074Z,23.67
2018-03-18T04:39:17.251Z,26.53
2018-03-18T04:41:46.554Z,27.47
2018-03-18T04:44:15.569Z,32.90
2018-03-18T04:46:44.662Z,23.47
2018-03-18T04:49:13.674Z,26.53
2018-03-18T04:51:42.935Z,26.30
2018-03-18T04:54:12.161Z,30.50
2018-03-18T04:56:41.446Z,31.60
2018-03-18T04:59:10.784Z,27.90
2018-03-18T05:01:40.005Z,27.10
2018-03-18T05:04:09.242Z,23.67
2018-03-18T05:06:38.415Z,24.47
2018-03-18T05:09:07.909Z,30.50
2018-03-18T05:11:37.332Z,23.50
2018-03-18T05:14:06.505Z,28.37
2018-03-18T05:16:35.724Z,28.90
2018-03-18T05:19:04.869Z,24.77
2018-03-18T05:21:38.785Z,29.03
2018-03-18T05:24:08.157Z,23.67
2018-03-18T05:26:37.564Z,24.73
2018-03-18T05:29:06.630Z,26.30
2018-03-18T05:31:35.723Z,29.13
2018-03-18T05:34:04.833Z,27.73
2018-03-18T05:36:33.911Z,29.90
2018-03-18T05:39:03.133Z,25.83
2018-03-18T05:41:33.209Z,28.13
2018-03-18T05:44:02.319Z,32.27
2018-03-18T05:46:31.284Z,28.43
2018-03-18T05:49:00.298Z,32.50
2018-03-18T05:51:29.677Z,31.80
2018-03-18T05:53:59.156Z,29.77
2018-03-18T05:56:28.249Z,35.10
2018-03-18T05:58:57.280Z,31.40
2018-03-18T06:01:26.420Z,26.87
2018-03-18T06:03:55.525Z,29.93
2018-03-18T06:06:24.804Z,21.77
2018-03-18T06:08:54.175Z,27.73
2018-03-18T06:11:23.272Z,28.90
2018-03-18T06:13:52.421Z,30.20
2018-03-18T06:16:21.573Z,22.13
2018-03-18T06:18:50.530Z,23.57
2018-03-18T06:21:19.552Z,25.63
2018-03-18T06:23:48.795Z,41.50
2018-03-18T06:26:17.970Z,30.63
2018-03-18T06:28:47.025Z,30.33
2018-03-18T06:31:16.191Z,31.73
2018-03-18T06:33:45.477Z,27.63
2018-03-18T06:36:14.405Z,30.03
2018-03-18T06:38:43.818Z,28.97
2018-03-18T06:41:13.190Z,33.13
2018-03-18T06:43:42.490Z,27.03
2018-03-18T06:46:11.580Z,36.73
2018-03-18T06:48:40.627Z,35.10
2018-03-18T06:51:09.568Z,30.43
2018-03-18T06:53:38.519Z,28.53
2018-03-18T06:56:07.545Z,34.33
2018-03-18T06:58:36.711Z,28.47
2018-03-18T07:01:05.838Z,33.60
2018-03-18T07:03:35.075Z,36.40
2018-03-18T07:06:03.982Z,39.97
2018-03-18T07:08:32.995Z,39.67
2018-03-18T07:11:02.095Z,36.03
2018-03-18T07:13:31.054Z,32.00
2018-03-18T07:16:00.341Z,33.47
2018-03-18T07:18:29.238Z,24.33
2018-03-18T07:20:58.193Z,31.37
2018-03-18T07:23:27.286Z,62.10
2018-03-18T07:25:56.967Z,31.63
2018-03-18T07:28:26.162Z,40.83
2018-03-18T07:30:55.233Z,32.33
2018-03-18T07:33:24.311Z,30.13
2018-03-18T07:35:53.695Z,27.23
2018-03-18T07:38:22.745Z,33.70
2018-03-18T07:40:51.855Z,31.93
2018-03-18T07:43:21.003Z,28.27
2018-03-18T07:45:49.934Z,46.47
2018-03-18T07:48:19.199Z,31.07
2018-03-18T07:50:48.551Z,33.80
2018-03-18T07:53:17.708Z,46.50
2018-03-18T07:55:46.805Z,35.23
2018-03-18T07:58:15.881Z,35.27
2018-03-18T08:00:45.027Z,33.40
2018-03-18T08:03:14.086Z,32.10
2018-03-18T08:05:43.365Z,30.30
2018-03-18T08:08:12.462Z,33.00
2018-03-18T08:10:41.683Z,35.83
2018-03-18T08:13:10.826Z,27.43
2018-03-18T08:15:39.948Z,34.87
2018-03-18T08:18:09.140Z,35.20
2018-03-18T08:20:38.366Z,27.40
2018-03-18T08:23:07.333Z,32.60
2018-03-18T08:25:36.713Z,33.43
2018-03-18T08:28:05.606Z,36.63
2018-03-18T08:30:34.723Z,28.30
2018-03-18T08:33:04.004Z,24.67
2018-03-18T08:35:33.579Z,32.00
2018-03-18T08:38:02.821Z,31.97
2018-03-18T08:40:31.818Z,32.33
2018-03-18T08:43:00.871Z,32.37
2018-03-18T08:45:30.034Z,30.90
2018-03-18T08:47:59.435Z,32.97
2018-03-18T08:50:29.448Z,28.53
2018-03-18T08:52:58.830Z,30.37
2018-03-18T08:55:28.162Z,54.63
2018-03-18T08:57:57.657Z,30.73
2018-03-18T09:00:27.017Z,27.93
2018-03-18T09:02:56.357Z,27.17
2018-03-18T09:05:25.285Z,30.03
2018-03-18T09:07:54.319Z,75.57
2018-03-18T09:10:23.363Z,25.97
2018-03-18T09:12:52.465Z,28.40
2018-03-18T09:15:21.677Z,24.27
2018-03-18T09:17:50.893Z,30.43
2018-03-18T09:20:20.015Z,31.57
2018-03-18T09:22:49.089Z,28.60
2018-03-18T09:25:18.626Z,33.50
2018-03-18T09:27:47.862Z,23.43
2018-03-18T09:30:17.204Z,30.97
2018-03-18T09:32:46.437Z,26.30
2018-03-18T09:35:15.437Z,27.53
2018-03-18T09:37:44.667Z,33.93
2018-03-18T09:40:13.811Z,36.73
2018-03-18T09:42:42.879Z,28.10
2018-03-18T09:45:11.987Z,46.77
2018-03-18T09:47:41.445Z,28.53
2018-03-18T09:50:10.660Z,35.07
2018-03-18T09:52:39.844Z,31.77
2018-03-18T09:55:08.867Z,35.63
2018-03-18T09:57:38.096Z,33.43
2018-03-18T10:00:07.157Z,30.93
2018-03-18T10:02:36.273Z,31.83
2018-03-18T10:05:05.371Z,36.37
2018-03-18T10:07:34.390Z,36.33
2018-03-18T10:10:03.522Z,37.10
2018-03-18T10:12:32.679Z,42.57
2018-03-18T10:15:01.670Z,36.20
2018-03-18T10:17:31.457Z,38.77
2018-03-18T10:20:00.555Z,42.87
2018-03-18T10:22:29.583Z,34.23
2018-03-18T10:24:58.554Z,33.30
2018-03-18T10:27:27.818Z,31.83
2018-03-18T10:29:56.945Z,28.13
2018-03-18T10:32:26.061Z,36.27
2018-03-18T10:34:55.202Z,35.03
2018-03-18T10:37:24.807Z,39.07
2018-03-18T10:39:53.758Z,35.63
2018-03-18T10:42:22.709Z,38.17
2018-03-18T10:44:52.123Z,34.37
2018-03-18T10:47:21.630Z,39.37
2018-03-18T10:49:50.925Z,34.53
2018-03-18T10:52:20.022Z,26.40
2018-03-18T10:54:48.945Z,35.53
2018-03-18T10:57:18.453Z,35.07
2018-03-18T10:59:48.331Z,26.70
2018-03-18T11:02:17.750Z,24.13
2018-03-18T11:04:47.002Z,24.53
2018-03-18T11:07:16.041Z,28.43
2018-03-18T11:09:45.043Z,29.33
2018-03-18T11:12:14.267Z,32.57
2018-03-18T11:14:43.353Z,26.50
2018-03-18T11:17:12.616Z,29.73
2018-03-18T11:19:41.567Z,32.20
2018-03-18T11:22:10.904Z,29.20
2018-03-18T11:24:40.073Z,29.90
2018-03-18T11:27:09.399Z,23.93
2018-03-18T11:29:38.465Z,52.27
2018-03-18T11:32:07.414Z,26.70
2018-03-18T11:34:36.363Z,34.60
2018-03-18T11:37:05.517Z,28.67
2018-03-18T11:39:34.997Z,30.13
2018-03-18T11:42:04.305Z,31.30
2018-03-18T11:44:33.603Z,30.03
2018-03-18T11:47:02.675Z,35.13
2018-03-18T11:49:31.912Z,39.20
2018-03-18T11:52:01.317Z,40.17
2018-03-18T11:54:30.544Z,33.00
2018-03-18T11:56:59.685Z,34.27
2018-03-18T11:59:28.710Z,29.90
2018-03-18T12:01:57.958Z,30.30
2018-03-18T12:04:27.185Z,37.70
2018-03-18T12:06:56.425Z,35.97
2018-03-18T12:09:25.544Z,39.40
2018-03-18T12:11:54.477Z,43.07
2018-03-18T12:14:23.436Z,35.77
2018-03-18T12:16:52.545Z,31.97
2018-03-18T12:19:21.606Z,42.23
2018-03-18T12:21:50.549Z,35.03
2018-03-18T12:24:19.554Z,35.13
2018-03-18T12:26:48.917Z,33.60
2018-03-18T12:29:18.225Z,45.87
2018-03-18T12:31:47.651Z,40.20
2018-03-18T12:34:16.818Z,33.30
2018-03-18T12:36:46.121Z,30.90
2018-03-18T12:39:15.310Z,40.60
2018-03-18T12:41:44.578Z,35.60
2018-03-18T12:44:13.957Z,30.43
2018-03-18T12:46:43.091Z,34.17
2018-03-18T12:49:12.142Z,32.67
2018-03-18T12:51:41.407Z,31.87
2018-03-18T12:54:10.565Z,34.33
2018-03-18T12:56:39.921Z,42.40
2018-03-18T12:59:09.191Z,35.97
2018-03-18T13:01:38.266Z,33.60
2018-03-18T13:04:07.334Z,34.30
2018-03-18T13:06:36.538Z,34.90
2018-03-18T13:09:05.822Z,39.08
2018-03-18T13:11:35.073Z,36.72
2018-03-18T13:14:04.279Z,34.33
2018-03-18T13:16:33.411Z,39.42
2018-03-18T13:19:02.539Z,38.72
2018-03-18T13:21:31.947Z,38.78
2018-03-18T13:24:01.475Z,38.75
2018-03-18T13:26:30.670Z,38.20
2018-03-18T13:28:59.647Z,31.95
2018-03-18T13:31:28.794Z,36.25
2018-03-18T13:33:58.013Z,31.40
2018-03-18T13:36:27.082Z,32.97
2018-03-18T13:38:56.006Z,34.88
2018-03-18T13:41:25.215Z,32.85
2018-03-18T13:43:54.343Z,32.70
2018-03-18T13:46:23.321Z,32.55
2018-03-18T13:48:52.393Z,38.38
2018-03-18T13:51:21.649Z,33.65
2018-03-18T13:53:50.643Z,37.00
2018-03-18T13:56:19.839Z,33.67
2018-03-18T13:58:49.314Z,35.60
2018-03-18T14:01:18.598Z,32.13
2018-03-18T14:03:47.972Z,40.95
2018-03-18T14:06:17.406Z,33.75
2018-03-18T14:08:46.523Z,33.75
2018-03-18T14:11:15.961Z,29.23
2018-03-18T14:13:45.289Z,35.60
2018-03-18T14:16:14.568Z,36.65
2018-03-18T14:18:43.775Z,40.83
2018-03-18T14:21:13.017Z,34.00
2018-03-18T14:23:42.305Z,38.00
2018-03-18T14:26:11.713Z,43.03
2018-03-18T14:28:40.919Z,34.63
2018-03-18T14:31:09.940Z,37.90
2018-03-18T14:33:38.951Z,43.10
2018-03-18T14:36:08.049Z,41.40
2018-03-18T14:38:37.258Z,40.60
2018-03-18T14:41:06.486Z,41.58
2018-03-18T14:43:35.847Z,48.53
2018-03-18T14:46:05.089Z,45.72
2018-03-18T14:48:34.448Z,44.67
2018-03-18T14:51:03.755Z,44.45
2018-03-18T14:53:32.879Z,48.13
2018-03-18T14:56:02.018Z,40.45
2018-03-18T14:58:31.150Z,60.47
2018-03-18T15:01:00.313Z,58.35
2018-03-18T15:03:29.527Z,49.97
2018-03-18T15:05:58.723Z,48.13
2018-03-18T15:08:27.950Z,46.08
2018-03-18T15:10:57.294Z,60.70
2018-03-18T15:13:26.531Z,67.97
2018-03-18T15:15:55.814Z,70.57
2018-03-18T15:18:24.965Z,62.85
2018-03-18T15:20:54.110Z,57.50
2018-03-18T15:23:23.466Z,55.00
2018-03-18T15:25:52.598Z,58.40
2018-03-18T15:28:21.707Z,39.28
2018-03-18T15:30:51.265Z,28.90
2018-03-18T15:33:20.589Z,32.40
2018-03-18T15:35:49.918Z,24.52
2018-03-18T15:38:19.138Z,23.58
2018-03-18T15:40:48.210Z,20.48
2018-03-18T15:43:17.482Z,20.55
2018-03-18T15:45:46.418Z,23.77
2018-03-18T15:48:15.702Z,23.40
2018-03-18T15:50:44.826Z,26.20
2018-03-18T15:53:13.965Z,24.65
2018-03-18T15:55:43.362Z,23.73
2018-03-18T15:58:12.627Z,16.95
2018-03-18T16:00:41.721Z,21.30
2018-03-18T16:03:10.826Z,18.23
2018-03-18T16:05:39.999Z,21.92
2018-03-18T16:08:09.251Z,22.92
2018-03-18T16:10:38.312Z,20.65
2018-03-18T16:13:07.593Z,24.25
2018-03-18T16:15:36.894Z,15.35
2018-03-18T16:18:06.259Z,14.95
2018-03-18T16:20:35.482Z,14.25
2018-03-18T16:23:04.742Z,13.32
2018-03-18T16:25:34.167Z,11.82
2018-03-18T16:28:03.316Z,12.02
2018-03-18T16:30:43.566Z,10.77
2018-03-18T16:33:12.341Z,12.88
2018-03-18T16:35:41.354Z,13.60
2018-03-18T16:38:10.553Z,8.23
2018-03-18T16:40:39.576Z,8.88
2018-03-18T16:43:08.642Z,12.63
2018-03-18T16:45:38.003Z,11.07
2018-03-18T16:48:07.207Z,7.82
2018-03-18T16:50:36.507Z,9.07
2018-03-18T16:53:05.468Z,7.32
2018-03-18T16:55:34.653Z,9.20
2018-03-18T16:58:03.694Z,9.65
2018-03-18T17:00:33.156Z,7.25
2018-03-18T17:03:02.485Z,11.32
2018-03-18T17:05:31.515Z,8.52
2018-03-18T17:08:00.981Z,8.70
2018-03-18T17:10:29.895Z,9.32
2018-03-18T17:12:59.101Z,8.30
2018-03-18T17:15:28.575Z,6.62
2018-03-18T17:17:58.245Z,8.25
2018-03-18T17:20:27.735Z,9.00
2018-03-18T17:22:57.347Z,7.32
2018-03-18T17:25:26.604Z,11.52
2018-03-18T17:27:55.892Z,13.02
2018-03-18T17:30:25.096Z,12.05
2018-03-18T17:32:54.205Z,9.00
2018-03-18T17:35:23.336Z,8.18
2018-03-18T17:37:52.388Z,7.72
2018-03-18T17:40:21.457Z,5.28
2018-03-18T17:42:50.707Z,5.70
2018-03-18T17:45:31.323Z,7.80
2018-03-18T17:48:11.510Z,7.40
2018-03-18T17:50:51.709Z,6.80
2018-03-18T17:53:31.878Z,6.00
2018-03-18T17:56:12.129Z,6.00
2018-03-18T17:58:41.055Z,7.87
2018-03-18T18:01:10.150Z,10.35
2018-03-18T18:03:39.339Z,9.85
2018-03-18T18:06:08.622Z,6.87
2018-03-18T18:08:37.698Z,6.25
2018-03-18T18:11:07.271Z,4.80
2018-03-18T18:13:36.533Z,5.43
2018-03-18T18:16:05.746Z,4.75
2018-03-18T18:18:34.816Z,5.45
2018-03-18T18:21:04.106Z,4.75
2018-03-18T18:23:33.213Z,6.55
2018-03-18T18:26:02.489Z,5.20
2018-03-18T18:28:31.709Z,7.20
2018-03-18T18:31:01.098Z,5.05
2018-03-18T18:33:30.031Z,6.62
2018-03-18T18:35:59.429Z,7.12
2018-03-18T18:38:28.706Z,4.37
2018-03-18T18:40:58.136Z,5.62
2018-03-18T18:43:27.385Z,6.65
2018-03-18T18:45:56.525Z,7.43
2018-03-18T18:48:25.620Z,7.78
2018-03-18T18:50:54.693Z,7.05
2018-03-18T18:53:23.853Z,8.38
2018-03-18T18:55:52.966Z,8.30
2018-03-18T18:58:22.411Z,8.32
2018-03-18T19:00:52.060Z,9.20
2018-03-18T19:03:21.177Z,9.02
2018-03-18T19:05:50.500Z,3.97
2018-03-18T19:08:19.830Z,4.70
2018-03-18T19:10:49.227Z,5.32
2018-03-18T19:13:18.640Z,4.95
2018-03-18T19:15:48.029Z,8.20
2018-03-18T19:18:17.329Z,6.55
2018-03-18T19:20:47.494Z,9.10
2018-03-18T19:23:16.745Z,6.28
2018-03-18T19:25:46.145Z,8.27
2018-03-18T19:28:15.581Z,8.85
2018-03-18T19:30:44.823Z,9.30
2018-03-18T19:33:13.902Z,7.80
2018-03-18T19:35:43.198Z,7.93
2018-03-18T19:38:12.175Z,9.60
2018-03-18T19:40:41.297Z,6.70
2018-03-18T19:43:10.727Z,10.15
2018-03-18T19:45:39.878Z,6.35
2018-03-18T19:48:08.984Z,7.00
2018-03-18T19:50:37.924Z,7.90
2018-03-18T19:53:07.302Z,8.10
2018-03-18T19:55:36.523Z,8.38
2018-03-18T19:58:05.673Z,7.03
2018-03-18T20:00:34.919Z,5.82
2018-03-18T20:03:03.934Z,6.03
2018-03-18T20:05:33.066Z,5.55
2018-03-18T20:08:02.206Z,5.62
2018-03-18T20:10:31.153Z,4.90
2018-03-18T20:13:00.388Z,6.78
2018-03-18T20:15:29.614Z,5.28
2018-03-18T20:17:58.882Z,6.30
2018-03-18T20:20:28.112Z,4.97
2018-03-18T20:22:57.549Z,5.80
2018-03-18T20:25:26.714Z,6.60
2018-03-18T20:27:55.685Z,6.50
2018-03-18T20:30:24.966Z,7.07
2018-03-18T20:32:54.547Z,6.18
2018-03-18T20:35:23.673Z,4.97
2018-03-18T20:37:52.847Z,7.72
2018-03-18T20:40:22.142Z,5.15
2018-03-18T20:42:51.529Z,8.20
2018-03-18T20:45:20.650Z,6.65
2018-03-18T20:47:49.685Z,5.43
2018-03-18T20:50:18.957Z,5.80
2018-03-18T20:52:48.054Z,7.78
2018-03-18T20:55:17.545Z,7.35
2018-03-18T20:57:47.193Z,7.03
2018-03-18T21:00:16.109Z,7.35
2018-03-18T21:02:45.073Z,5.75
2018-03-18T21:05:14.539Z,6.95
2018-03-18T21:07:43.929Z,7.40
2018-03-18T21:10:12.921Z,7.82
2018-03-18T21:12:41.989Z,9.93
2018-03-18T21:15:11.110Z,9.18
2018-03-18T21:17:40.098Z,10.43
2018-03-18T21:20:09.191Z,9.23
2018-03-18T21:22:38.546Z,10.38
2018-03-18T21:25:07.653Z,7.55
2018-03-18T21:27:36.737Z,7.47
2018-03-18T21:30:05.789Z,8.60
2018-03-18T21:32:35.023Z,7.25
2018-03-18T21:35:03.925Z,7.40
2018-03-18T21:37:33.333Z,6.47
2018-03-18T21:40:02.518Z,5.85
2018-03-18T21:42:31.672Z,5.15
2018-03-18T21:45:00.873Z,5.18
2018-03-18T21:47:29.962Z,5.37
2018-03-18T21:49:58.950Z,4.50
2018-03-18T21:52:28.140Z,5.35
2018-03-18T21:54:57.397Z,3.92
2018-03-18T21:57:26.338Z,4.75
2018-03-18T21:59:55.406Z,5.20
2018-03-18T22:02:24.630Z,4.25
2018-03-18T22:04:53.705Z,4.37
2018-03-18T22:07:22.873Z,4.65
2018-03-18T22:09:52.150Z,4.57
2018-03-18T22:12:21.101Z,4.55
2018-03-18T22:14:50.182Z,5.07
2018-03-18T22:17:19.229Z,4.72
2018-03-18T22:19:48.588Z,5.70
2018-03-18T22:22:17.710Z,5.35
2018-03-18T22:24:46.869Z,4.07
2018-03-18T22:27:16.582Z,4.37
2018-03-18T22:29:46.021Z,5.32
2018-03-18T22:32:14.986Z,5.03
2018-03-18T22:34:44.451Z,5.55
2018-03-18T22:37:13.785Z,6.78
2018-03-18T22:39:43.131Z,7.10
2018-03-18T22:42:12.810Z,7.15
2018-03-18T22:44:41.975Z,7.80
2018-03-18T22:47:11.429Z,8.82
2018-03-18T22:49:40.967Z,8.80
2018-03-18T22:52:10.987Z,10.02
2018-03-18T22:54:40.254Z,8.75
2018-03-18T22:57:09.637Z,9.60
2018-03-18T22:59:39.063Z,10.43
2018-03-18T23:02:08.669Z,10.48
2018-03-18T23:04:37.948Z,9.15
2018-03-18T23:07:07.274Z,10.38
2018-03-18T23:09:36.365Z,9.00
2018-03-18T23:12:05.918Z,11.10
2018-03-18T23:14:35.137Z,9.43
2018-03-18T23:17:04.548Z,9.52
2018-03-18T23:19:33.737Z,11.95
2018-03-18T23:22:03.381Z,11.80
2018-03-18T23:24:32.758Z,11.85
2018-03-18T23:27:02.254Z,14.30
2018-03-18T23:29:31.547Z,12.25
2018-03-18T23:32:00.763Z,12.95
2018-03-18T23:34:29.849Z,11.57
2018-03-18T23:36:59.664Z,11.65
2018-03-18T23:39:28.858Z,12.48
2018-03-18T23:41:57.904Z,11.23
2018-03-18T23:44:27.177Z,14.43
2018-03-18T23:46:56.125Z,13.85
2018-03-18T23:49:25.528Z,14.20
2018-03-18T23:51:54.962Z,14.20
2018-03-18T23:54:24.289Z,16.70
2018-03-18T23:56:53.479Z,14.25
2018-03-18T23:59:22.852Z,15.02
